Time;durP1;ratioP1;P1;durP2;ratioP2;P2;SDS_P1;SDS_P2;PMS_P1;PMS_P2;Temp;Humidity;BMP_temperature;BMP_pressure;BME280_temperature;BME280_humidity;BME280_pressure;Samples;Min_cycle;Max_cycle;Signal;HPM_P1;HPM_P2
2022/02/18 00:01:29;;;;;;;4.90;0.68;;;8.40;70.60;;;;;;5140830;27;20507;-71
2022/02/18 00:04:00;;;;;;;4.03;0.60;;;8.40;70.60;;;;;;5142558;27;20127;-72
2022/02/18 00:06:34;;;;;;;2.58;0.50;;;8.40;70.60;;;;;;5134452;27;20077;-71
2022/02/18 00:09:01;;;;;;;1.85;0.30;;;8.40;71.10;;;;;;5127671;27;20038;-72
2022/02/18 00:11:35;;;;;;;2.70;0.43;;;8.40;71.10;;;;;;5126546;27;20043;-71
2022/02/18 00:14:04;;;;;;;1.30;0.40;;;8.30;71.20;;;;;;5126282;27;20043;-72
2022/02/18 00:16:33;;;;;;;3.03;0.40;;;8.40;71.10;;;;;;5125935;27;20057;-70
2022/02/18 00:19:00;;;;;;;2.88;0.28;;;8.40;71.10;;;;;;5128638;27;20051;-73
2022/02/18 00:21:34;;;;;;;4.53;0.55;;;8.40;71.40;;;;;;5130481;27;20173;-72
2022/02/18 00:24:02;;;;;;;4.15;0.60;;;8.40;71.30;;;;;;5129809;27;20076;-71
2022/02/18 00:26:32;;;;;;;3.00;0.93;;;8.40;71.50;;;;;;5129339;27;20658;-71
2022/02/18 00:28:59;;;;;;;2.78;0.50;;;8.40;71.90;;;;;;5130641;27;20165;-72
2022/02/18 00:31:28;;;;;;;5.47;0.93;;;8.40;72.30;;;;;;5126511;27;20228;-72
2022/02/18 00:33:56;;;;;;;3.35;0.55;;;8.40;72.30;;;;;;5124473;27;20045;-71
2022/02/18 00:36:23;;;;;;;4.78;0.82;;;8.30;72.40;;;;;;5126744;27;20084;-71
2022/02/18 00:38:51;;;;;;;1.63;0.82;;;8.30;72.80;;;;;;5125571;27;20038;-75
2022/02/18 00:41:21;;;;;;;4.22;0.50;;;8.30;72.80;;;;;;5106748;27;20043;-71
2022/02/18 00:43:48;;;;;;;3.90;0.55;;;8.30;72.90;;;;;;5125689;27;20530;-71
2022/02/18 00:46:16;;;;;;;5.57;0.80;;;8.20;73.10;;;;;;5109296;27;20093;-72
2022/02/18 00:48:47;;;;;;;4.88;0.80;;;8.20;73.00;;;;;;5125277;27;20043;-71
2022/02/18 00:51:15;;;;;;;3.00;0.57;;;8.20;73.00;;;;;;5124189;27;20043;-71
2022/02/18 00:53:43;;;;;;;1.77;0.40;;;8.20;72.90;;;;;;5124527;27;20054;-71
2022/02/18 00:56:10;;;;;;;3.10;0.75;;;8.20;72.70;;;;;;5126969;27;20053;-71
2022/02/18 00:58:38;;;;;;;2.47;0.30;;;8.20;73.10;;;;;;5124020;27;20043;-69
2022/02/18 01:01:08;;;;;;;5.57;0.60;;;8.30;73.30;;;;;;5103714;27;20047;-70
2022/02/18 01:03:35;;;;;;;4.82;1.40;;;8.20;73.40;;;;;;5126436;27;20035;-72
2022/02/18 01:06:04;;;;;;;2.10;0.20;;;8.20;73.60;;;;;;5125258;27;20051;-72
2022/02/18 01:08:33;;;;;;;2.35;0.52;;;8.20;73.80;;;;;;5108700;27;20055;-70
2022/02/18 01:11:00;;;;;;;3.72;0.60;;;8.20;74.00;;;;;;5126343;27;20126;-71
2022/02/18 01:13:29;;;;;;;1.33;0.50;;;8.20;73.90;;;;;;5126257;27;20042;-72
2022/02/18 01:15:56;;;;;;;3.17;0.60;;;8.20;73.80;;;;;;5127904;27;20057;-72
2022/02/18 01:18:29;;;;;;;3.38;0.88;;;8.20;73.90;;;;;;5126158;27;20073;-71
2022/02/18 01:20:56;;;;;;;2.30;0.47;;;8.20;73.90;;;;;;5108493;27;20047;-73
2022/02/18 01:23:25;;;;;;;0.80;0.25;;;8.20;74.00;;;;;;5128133;27;20042;-72
2022/02/18 01:25:53;;;;;;;3.08;0.70;;;8.20;74.00;;;;;;5126074;27;20138;-72
2022/02/18 01:28:20;;;;;;;1.58;0.50;;;8.10;73.90;;;;;;5109845;27;20046;-72
2022/02/18 01:30:47;;;;;;;4.85;0.38;;;8.20;74.10;;;;;;5128666;27;20043;-72
2022/02/18 01:33:15;;;;;;;5.82;0.50;;;8.20;74.00;;;;;;5127048;27;20399;-73
2022/02/18 01:35:42;;;;;;;2.58;0.43;;;8.20;74.10;;;;;;5111839;27;20071;-71
2022/02/18 01:38:09;;;;;;;2.95;0.45;;;8.20;74.10;;;;;;5126999;27;20042;-73
2022/02/18 01:40:38;;;;;;;3.38;0.45;;;8.20;74.10;;;;;;5129575;27;20046;-70
2022/02/18 01:43:07;;;;;;;1.23;0.50;;;8.20;74.20;;;;;;5133331;27;20117;-70
2022/02/18 01:45:34;;;;;;;3.03;0.40;;;8.10;74.10;;;;;;5133239;27;20042;-72
2022/02/18 01:48:01;;;;;;;1.60;0.30;;;8.20;74.20;;;;;;5133915;27;20121;-73
2022/02/18 01:50:29;;;;;;;2.75;0.30;;;8.20;74.30;;;;;;5132815;27;20072;-75
2022/02/18 01:52:57;;;;;;;3.45;0.60;;;8.20;74.20;;;;;;5134036;27;20043;-72
2022/02/18 01:55:25;;;;;;;0.80;0.35;;;8.20;74.30;;;;;;5133681;27;20035;-71
2022/02/18 01:57:56;;;;;;;2.97;0.50;;;8.20;74.40;;;;;;5135803;27;20057;-72
2022/02/18 02:00:25;;;;;;;2.55;0.38;;;8.20;74.40;;;;;;5111075;27;20495;-72
2022/02/18 02:02:55;;;;;;;7.15;0.70;;;8.20;74.40;;;;;;5118391;27;20043;-71
2022/02/18 02:05:23;;;;;;;6.47;0.90;;;8.20;74.50;;;;;;5134378;27;20166;-70
2022/02/18 02:07:51;;;;;;;3.40;0.52;;;8.20;74.70;;;;;;5129904;27;20050;-71
2022/02/18 02:10:20;;;;;;;4.95;0.75;;;8.10;74.80;;;;;;5114476;27;20944;-73
2022/02/18 02:12:52;;;;;;;2.45;0.40;;;8.10;74.80;;;;;;5122840;27;20047;-71
2022/02/18 02:15:40;;;;;;;5.72;0.52;;;8.10;74.70;;;;;;5129172;27;20035;-70
2022/02/18 02:18:18;;;;;;;3.45;0.60;;;8.20;74.80;;;;;;5127363;27;20047;-70
2022/02/18 02:20:48;;;;;;;7.63;0.98;;;8.20;74.80;;;;;;5116589;27;20410;-71
2022/02/18 02:23:18;;;;;;;5.25;1.23;;;8.20;74.90;;;;;;5132005;27;20035;-71
2022/02/18 02:25:46;;;;;;;6.68;1.25;;;8.10;75.00;;;;;;5109662;27;20177;-71
2022/02/18 02:28:21;;;;;;;2.28;1.02;;;8.20;75.10;;;;;;5107157;27;22859;-72
2022/02/18 02:30:51;;;;;;;6.05;1.50;;;8.20;75.10;;;;;;5104643;27;20111;-72
2022/02/18 02:33:29;;;;;;;2.92;0.95;;;8.20;75.20;;;;;;5101692;27;20046;-72
2022/02/18 02:35:58;;;;;;;10.85;2.00;;;8.20;75.20;;;;;;5106717;27;20214;-72
2022/02/18 02:38:28;;;;;;;5.97;1.15;;;8.20;75.30;;;;;;5108070;27;20043;-70
2022/02/18 02:40:56;;;;;;;7.78;1.15;;;8.20;75.40;;;;;;5122119;27;20092;-71
2022/02/18 02:43:23;;;;;;;5.88;1.08;;;8.10;75.50;;;;;;5126664;27;20046;-72
2022/02/18 02:45:50;;;;;;;5.35;0.98;;;8.10;75.60;;;;;;5122002;27;20129;-70
2022/02/18 02:48:17;;;;;;;3.78;0.90;;;8.10;75.60;;;;;;5124613;27;20050;-71
2022/02/18 02:50:58;;;;;;;5.47;2.00;;;8.20;75.70;;;;;;5109544;27;20095;-71
2022/02/18 02:53:28;;;;;;;6.00;1.55;;;8.20;75.60;;;;;;5107584;27;20377;-71
2022/02/18 02:55:55;;;;;;;4.72;0.88;;;8.20;75.70;;;;;;5125445;27;20038;-70
2022/02/18 02:58:25;;;;;;;10.05;1.27;;;8.10;75.70;;;;;;5121178;27;20038;-71
2022/02/18 03:00:54;;;;;;;6.95;1.50;;;8.10;75.80;;;;;;5119166;27;20103;-72
2022/02/18 03:03:33;;;;;;;6.72;2.08;;;8.10;75.90;;;;;;5115899;27;20059;-71
2022/02/18 03:06:04;;;;;;;4.70;1.13;;;8.10;75.90;;;;;;5127779;27;20150;-71
2022/02/18 03:08:34;;;;;;;9.35;1.25;;;8.10;75.90;;;;;;5110072;27;20051;-71
2022/02/18 03:11:21;;;;;;;8.90;1.38;;;8.10;76.00;;;;;;5107039;27;20468;-71
2022/02/18 03:14:12;;;;;;;4.90;0.85;;;8.10;76.00;;;;;;5113408;27;20047;-72
2022/02/18 03:16:49;;;;;;;6.00;0.98;;;8.10;76.10;;;;;;5105339;27;20127;-72
2022/02/18 03:19:16;;;;;;;11.07;2.28;;;8.00;76.10;;;;;;5124264;27;20093;-71
2022/02/18 03:21:51;;;;;;;9.77;1.02;;;8.00;76.20;;;;;;5116225;27;20050;-71
2022/02/18 03:24:21;;;;;;;10.43;2.10;;;8.00;76.20;;;;;;5116494;27;20057;-72
2022/02/18 03:26:52;;;;;;;11.88;1.40;;;8.00;76.20;;;;;;5115869;27;20035;-72
2022/02/18 03:29:19;;;;;;;4.97;1.15;;;8.00;76.30;;;;;;5122152;27;20047;-72
2022/02/18 03:31:59;;;;;;;6.00;1.33;;;8.00;76.30;;;;;;5117324;27;20422;-71
2022/02/18 03:34:29;;;;;;;9.30;2.00;;;8.00;76.30;;;;;;5104915;27;20051;-72
2022/02/18 03:36:56;;;;;;;7.47;2.03;;;8.00;76.20;;;;;;5106199;27;20046;-72
2022/02/18 03:39:29;;;;;;;6.97;1.27;;;8.00;76.10;;;;;;5113147;27;20196;-72
2022/02/18 03:42:00;;;;;;;10.93;1.83;;;8.10;76.10;;;;;;5112799;27;20054;-71
2022/02/18 03:44:31;;;;;;;9.68;1.00;;;8.00;76.10;;;;;;5120622;27;20047;-72
2022/02/18 03:47:03;;;;;;;6.97;1.55;;;8.10;76.10;;;;;;5110728;27;20561;-72
2022/02/18 03:49:30;;;;;;;1.95;0.57;;;8.10;76.10;;;;;;5114814;27;20038;-71
2022/02/18 03:51:58;;;;;;;6.88;1.33;;;8.10;76.10;;;;;;5106331;27;20043;-71
2022/02/18 03:54:28;;;;;;;4.00;1.15;;;8.10;76.10;;;;;;5111977;27;20111;-71
2022/02/18 03:57:01;;;;;;;5.32;1.13;;;8.10;76.10;;;;;;5107351;27;20039;-72
2022/02/18 03:59:32;;;;;;;5.88;1.10;;;8.10;76.00;;;;;;5108305;27;20051;-71
2022/02/18 04:02:01;;;;;;;8.48;1.70;;;8.10;76.10;;;;;;5107369;27;20581;-71
2022/02/18 04:04:30;;;;;;;10.10;1.10;;;8.10;76.00;;;;;;5116723;27;20054;-71
2022/02/18 04:07:17;;;;;;;7.15;1.00;;;8.10;76.10;;;;;;5126731;27;20059;-71
2022/02/18 04:09:51;;;;;;;4.47;1.20;;;8.10;76.20;;;;;;5113182;27;20522;-71
2022/02/18 04:12:22;;;;;;;9.77;1.00;;;8.10;76.10;;;;;;5115843;27;20191;-71
2022/02/18 04:14:56;;;;;;;5.55;0.90;;;8.10;76.10;;;;;;5107970;27;20053;-72
2022/02/18 04:17:27;;;;;;;6.32;1.38;;;8.10;76.10;;;;;;5109833;27;20201;-70
2022/02/18 04:20:14;;;;;;;8.07;1.30;;;8.10;76.10;;;;;;5087236;27;20119;-70
2022/02/18 04:22:51;;;;;;;7.60;0.90;;;8.10;76.10;;;;;;5097233;27;20047;-71
2022/02/18 04:25:25;;;;;;;5.95;1.08;;;8.10;76.00;;;;;;5111417;27;20058;-72
2022/02/18 04:27:54;;;;;;;5.82;0.80;;;8.10;76.00;;;;;;5106950;27;20047;-72
2022/02/18 04:30:21;;;;;;;6.40;1.95;;;8.10;76.00;;;;;;5102801;27;20054;-70
2022/02/18 04:32:49;;;;;;;5.68;1.25;;;8.10;76.00;;;;;;5104763;27;20198;-71
2022/02/18 04:35:16;;;;;;;6.47;1.05;;;8.10;76.00;;;;;;5105322;27;20051;-71
2022/02/18 04:37:46;;;;;;;11.30;1.95;;;8.10;76.00;;;;;;5109512;27;20058;-71
2022/02/18 04:40:15;;;;;;;7.43;1.42;;;8.10;75.90;;;;;;5104854;27;20057;-71
2022/02/18 04:42:44;;;;;;;7.83;0.97;;;8.10;75.90;;;;;;5103016;27;20047;-70
2022/02/18 04:45:12;;;;;;;4.80;1.20;;;8.10;76.00;;;;;;5110919;27;20477;-71
2022/02/18 04:47:42;;;;;;;5.80;1.27;;;8.10;76.10;;;;;;5113761;27;20053;-73
2022/02/18 04:50:10;;;;;;;8.82;1.08;;;8.10;76.10;;;;;;5111647;27;20484;-73
2022/02/18 04:52:37;;;;;;;10.50;1.15;;;8.00;76.20;;;;;;5110575;27;20044;-71
2022/02/18 04:55:06;;;;;;;6.95;0.85;;;8.00;76.20;;;;;;5107738;27;20055;-71
2022/02/18 04:57:34;;;;;;;8.43;0.90;;;8.00;76.30;;;;;;5109351;27;21919;-71
2022/02/18 05:00:06;;;;;;;7.45;1.15;;;8.00;76.30;;;;;;5108709;27;20039;-71
2022/02/18 05:02:33;;;;;;;10.38;1.08;;;8.00;76.40;;;;;;5108201;27;20052;-70
2022/02/18 05:05:01;;;;;;;7.63;1.55;;;7.90;76.50;;;;;;5106162;27;20044;-72
2022/02/18 05:07:30;;;;;;;4.72;0.70;;;8.00;76.50;;;;;;5106206;27;20069;-71
2022/02/18 05:09:58;;;;;;;4.55;1.20;;;8.00;76.50;;;;;;5105531;27;20040;-70
2022/02/18 05:12:25;;;;;;;4.28;0.60;;;8.00;76.50;;;;;;5107000;27;20049;-71
2022/02/18 05:14:52;;;;;;;7.80;1.40;;;8.00;76.60;;;;;;5105407;27;20055;-71
2022/02/18 05:17:21;;;;;;;5.80;1.92;;;7.90;76.70;;;;;;5106600;27;20055;-71
2022/02/18 05:19:48;;;;;;;7.25;1.55;;;7.90;76.80;;;;;;5125589;27;20062;-70
2022/02/18 05:22:16;;;;;;;5.05;1.13;;;7.90;76.80;;;;;;5125884;27;20052;-71
2022/02/18 05:24:43;;;;;;;9.05;1.63;;;7.90;76.90;;;;;;5122973;27;20158;-72
2022/02/18 05:27:10;;;;;;;7.72;1.38;;;7.80;76.90;;;;;;5126545;27;20092;-71
2022/02/18 05:29:38;;;;;;;7.07;1.67;;;7.80;77.10;;;;;;5117883;27;20037;-71
2022/02/18 05:32:06;;;;;;;4.35;1.02;;;7.70;77.20;;;;;;5117085;27;20080;-71
2022/02/18 05:34:35;;;;;;;5.97;1.33;;;7.70;77.20;;;;;;5117492;27;21202;-72
2022/02/18 05:37:02;;;;;;;7.72;1.30;;;7.70;77.20;;;;;;5121583;27;20050;-70
2022/02/18 05:39:30;;;;;;;12.07;1.63;;;7.70;77.20;;;;;;5122406;27;20059;-72
2022/02/18 05:41:57;;;;;;;5.65;1.10;;;7.70;77.10;;;;;;5120186;27;20039;-70
2022/02/18 05:44:30;;;;;;;8.02;2.28;;;7.70;77.20;;;;;;5120708;27;20342;-72
2022/02/18 05:47:00;;;;;;;8.75;2.13;;;7.70;77.30;;;;;;5122479;27;20067;-70
2022/02/18 05:49:31;;;;;;;12.13;3.10;;;7.70;77.40;;;;;;5123920;27;20042;-70
2022/02/18 05:52:00;;;;;;;7.38;1.83;;;7.60;77.40;;;;;;5125410;27;20046;-74
2022/02/18 05:54:30;;;;;;;8.60;1.65;;;7.60;77.50;;;;;;5123793;27;20046;-72
2022/02/18 05:56:57;;;;;;;10.05;1.80;;;7.50;77.70;;;;;;5123790;27;20157;-71
2022/02/18 05:59:28;;;;;;;9.82;2.47;;;7.50;77.80;;;;;;5115676;27;20301;-71
2022/02/18 06:02:01;;;;;;;6.47;1.60;;;7.50;77.80;;;;;;5119262;27;20159;-71
2022/02/18 06:04:31;;;;;;;7.23;1.10;;;7.50;77.90;;;;;;5118541;27;20185;-71
2022/02/18 06:07:06;;;;;;;4.23;0.70;;;7.50;77.90;;;;;;5119922;27;20039;-71
2022/02/18 06:09:33;;;;;;;8.38;1.27;;;7.50;77.90;;;;;;5119891;27;20480;-73
2022/02/18 06:12:00;;;;;;;6.20;2.15;;;7.50;78.10;;;;;;5106847;27;20055;-72
2022/02/18 06:14:31;;;;;;;4.97;0.65;;;7.40;78.10;;;;;;5120124;27;20161;-71
2022/02/18 06:16:59;;;;;;;6.47;1.35;;;7.40;78.30;;;;;;5119992;27;20043;-72
2022/02/18 06:19:26;;;;;;;7.53;1.30;;;7.40;78.50;;;;;;5120779;27;20057;-73
2022/02/18 06:21:54;;;;;;;6.72;1.77;;;7.40;78.60;;;;;;5123107;27;20122;-71
2022/02/18 06:24:22;;;;;;;3.75;0.70;;;7.40;78.60;;;;;;5119254;27;20067;-70
2022/02/18 06:26:49;;;;;;;4.30;1.05;;;7.40;78.50;;;;;;5119432;27;20043;-73
2022/02/18 06:29:18;;;;;;;9.23;1.70;;;7.40;78.50;;;;;;5124749;27;20045;-70
2022/02/18 06:31:52;;;;;;;9.68;1.92;;;7.40;78.60;;;;;;5115923;27;20055;-72
2022/02/18 06:34:21;;;;;;;5.88;1.02;;;7.40;78.50;;;;;;5123239;27;20055;-70
2022/02/18 06:36:51;;;;;;;5.78;2.00;;;7.50;78.60;;;;;;5124091;27;20080;-71
2022/02/18 06:39:19;;;;;;;;;;;7.40;78.70;;;;;;5124971;27;20051;-70
2022/02/18 06:41:48;;;;;;;4.95;1.45;;;7.50;78.60;;;;;;5113764;27;20395;-72
2022/02/18 06:44:16;;;;;;;8.98;1.40;;;7.50;78.60;;;;;;5123337;27;20973;-71
2022/02/18 06:46:43;;;;;;;6.95;1.25;;;7.50;78.70;;;;;;5127574;27;20479;-71
2022/02/18 06:49:11;;;;;;;6.40;2.70;;;7.50;78.80;;;;;;5131207;27;20619;-72
2022/02/18 06:51:38;;;;;;;7.57;2.97;;;7.50;78.70;;;;;;5130109;27;20035;-72
2022/02/18 06:54:09;;;;;;;17.27;6.00;;;7.50;78.60;;;;;;5126925;27;20073;-70
2022/02/18 06:56:36;;;;;;;14.80;6.43;;;7.50;78.70;;;;;;5121259;27;20047;-71
2022/02/18 06:59:05;;;;;;;15.88;6.85;;;7.50;78.70;;;;;;5125419;27;20096;-71
2022/02/18 07:01:32;;;;;;;15.75;6.50;;;7.50;78.70;;;;;;5120489;27;20053;-71
2022/02/18 07:04:00;;;;;;;15.52;5.95;;;7.50;78.70;;;;;;5120080;27;20058;-72
2022/02/18 07:06:29;;;;;;;10.38;4.70;;;7.50;78.70;;;;;;5121661;27;20047;-70
2022/02/18 07:08:57;;;;;;;12.57;4.18;;;7.60;78.80;;;;;;5121762;27;20054;-71
2022/02/18 07:11:25;;;;;;;15.73;3.17;;;7.50;79.10;;;;;;5120330;27;20187;-70
2022/02/18 07:13:52;;;;;;;16.45;3.58;;;7.60;79.20;;;;;;5118814;27;20046;-71
2022/02/18 07:16:21;;;;;;;12.38;4.03;;;7.50;79.20;;;;;;5120015;27;20142;-70
2022/02/18 07:18:55;;;;;;;10.80;4.75;;;7.50;79.40;;;;;;5119874;27;20073;-70
2022/02/18 07:21:24;;;;;;;11.70;3.17;;;7.50;79.50;;;;;;5120669;27;20058;-71
2022/02/18 07:23:52;;;;;;;10.40;2.97;;;7.60;79.70;;;;;;5122385;27;20110;-70
2022/02/18 07:26:21;;;;;;;12.32;2.83;;;7.60;80.00;;;;;;5123518;27;20690;-70
2022/02/18 07:28:54;;;;;;;12.55;3.75;;;7.60;80.20;;;;;;5117529;27;20057;-69
2022/02/18 07:31:24;;;;;;;13.52;3.58;;;7.50;80.30;;;;;;5121212;27;20046;-70
2022/02/18 07:33:51;;;;;;;8.27;2.85;;;7.60;80.60;;;;;;5119809;27;20043;-71
2022/02/18 07:36:19;;;;;;;12.80;3.78;;;7.50;80.90;;;;;;5120378;27;20035;-71
2022/02/18 07:38:49;;;;;;;10.35;3.85;;;7.60;81.00;;;;;;5116558;27;20617;-70
2022/02/18 07:41:20;;;;;;;15.48;3.17;;;7.60;81.10;;;;;;5111709;27;20050;-72
2022/02/18 07:43:47;;;;;;;12.55;3.28;;;7.60;81.30;;;;;;5126170;27;20785;-70
2022/02/18 07:46:14;;;;;;;12.02;2.63;;;7.60;81.50;;;;;;5125710;27;20096;-71
2022/02/18 07:48:42;;;;;;;5.97;1.80;;;7.60;81.70;;;;;;5127488;27;20034;-72
2022/02/18 07:51:09;;;;;;;11.40;3.30;;;7.60;81.80;;;;;;5125011;27;20047;-70
2022/02/18 07:53:37;;;;;;;8.30;3.03;;;7.60;81.90;;;;;;5125046;27;20051;-70
2022/02/18 07:56:07;;;;;;;8.23;2.15;;;7.70;82.10;;;;;;5105497;27;20226;-71
2022/02/18 07:58:34;;;;;;;6.53;1.48;;;7.70;82.40;;;;;;5118332;27;20157;-70
2022/02/18 08:01:01;;;;;;;11.05;2.75;;;7.70;82.80;;;;;;5118045;27;20054;-72
2022/02/18 08:03:30;;;;;;;12.32;3.08;;;7.70;82.70;;;;;;5115641;27;20130;-71
2022/02/18 08:05:59;;;;;;;10.02;3.17;;;7.70;82.70;;;;;;5118492;27;20485;-71
2022/02/18 08:08:28;;;;;;;9.60;3.28;;;7.70;82.50;;;;;;5118995;27;20046;-72
2022/02/18 08:10:55;;;;;;;5.03;1.70;;;7.70;82.40;;;;;;5120165;27;20042;-72
2022/02/18 08:13:23;;;;;;;9.73;2.58;;;7.80;82.40;;;;;;5119474;27;20186;-71
2022/02/18 08:15:50;;;;;;;5.13;2.13;;;7.70;82.40;;;;;;5125426;27;20440;-70
2022/02/18 08:18:19;;;;;;;7.13;1.95;;;7.80;82.40;;;;;;5127032;27;20059;-70
2022/02/18 08:20:50;;;;;;;9.27;2.08;;;7.80;82.40;;;;;;5122152;27;20077;-71
2022/02/18 08:23:19;;;;;;;8.07;1.77;;;7.90;82.60;;;;;;5125846;27;20053;-71
2022/02/18 08:25:47;;;;;;;10.38;1.55;;;7.80;82.80;;;;;;5125288;27;20039;-72
2022/02/18 08:28:14;;;;;;;8.98;1.75;;;7.80;83.20;;;;;;5125383;27;20049;-71
2022/02/18 08:30:46;;;;;;;6.45;1.50;;;7.90;83.20;;;;;;5125358;27;21523;-71
2022/02/18 08:33:13;;;;;;;6.05;2.05;;;7.90;83.30;;;;;;5123452;27;20051;-70
2022/02/18 08:35:41;;;;;;;6.22;2.13;;;7.90;83.50;;;;;;5121013;27;20050;-71
2022/02/18 08:38:09;;;;;;;9.10;2.35;;;7.90;83.70;;;;;;5128720;27;20046;-71
2022/02/18 08:40:37;;;;;;;6.13;2.13;;;8.00;83.60;;;;;;5131196;27;20138;-71
2022/02/18 08:43:06;;;;;;;12.25;3.08;;;8.00;83.70;;;;;;5131624;27;20058;-72
2022/02/18 08:45:34;;;;;;;9.13;3.05;;;8.10;83.90;;;;;;5125654;27;20113;-72
2022/02/18 08:48:01;;;;;;;11.50;2.85;;;8.10;83.70;;;;;;5120268;27;20051;-72
2022/02/18 08:50:29;;;;;;;12.63;3.72;;;8.20;83.70;;;;;;5117714;27;20102;-71
2022/02/18 08:53:00;;;;;;;11.02;2.85;;;8.20;84.00;;;;;;5119311;27;20251;-70
2022/02/18 08:55:29;;;;;;;12.77;3.03;;;8.20;84.20;;;;;;5119793;27;20057;-71
2022/02/18 08:57:59;;;;;;;12.98;3.63;;;8.20;84.10;;;;;;5118780;27;20063;-71
2022/02/18 09:00:27;;;;;;;10.40;2.70;;;8.30;84.00;;;;;;5120159;27;20036;-66
2022/02/18 09:02:55;;;;;;;11.27;2.75;;;8.30;84.00;;;;;;5117806;27;20042;-65
2022/02/18 09:05:24;;;;;;;11.98;1.85;;;8.30;84.40;;;;;;5120378;27;20047;-66
2022/02/18 09:07:53;;;;;;;8.82;1.73;;;8.30;84.40;;;;;;5110224;27;20116;-67
2022/02/18 09:10:20;;;;;;;7.43;1.38;;;8.40;84.50;;;;;;5117502;27;20247;-65
2022/02/18 09:12:48;;;;;;;6.15;1.70;;;8.40;84.60;;;;;;5122734;27;20063;-66
2022/02/18 09:15:18;;;;;;;4.47;2.03;;;8.40;84.50;;;;;;5122433;27;20039;-66
2022/02/18 09:18:04;;;;;;;6.85;1.10;;;8.40;84.50;;;;;;5103251;27;20182;-66
2022/02/18 09:20:35;;;;;;;8.00;1.60;;;8.40;84.40;;;;;;5105837;27;20039;-67
2022/02/18 09:23:06;;;;;;;10.05;1.20;;;8.50;84.50;;;;;;5109587;27;20481;-65
2022/02/18 09:25:33;;;;;;;3.33;0.95;;;8.50;84.80;;;;;;5106306;27;20035;-66
2022/02/18 09:28:01;;;;;;;7.13;1.20;;;8.50;85.00;;;;;;5102201;27;20052;-66
2022/02/18 09:30:30;;;;;;;7.50;1.15;;;8.50;84.80;;;;;;5101059;27;20058;-66
2022/02/18 09:33:03;;;;;;;11.88;2.42;;;8.50;84.70;;;;;;5103077;27;20039;-65
2022/02/18 09:35:34;;;;;;;5.47;2.20;;;8.50;85.10;;;;;;5105948;27;20047;-65
2022/02/18 09:38:02;;;;;;;9.48;1.25;;;8.50;85.30;;;;;;5104294;27;20047;-65
2022/02/18 09:40:32;;;;;;;4.80;1.30;;;8.60;85.50;;;;;;5103175;28;20595;-65
2022/02/18 09:43:08;;;;;;;10.80;1.23;;;8.60;85.60;;;;;;5100114;27;20148;-65
2022/02/18 09:45:38;;;;;;;8.02;1.48;;;8.60;85.60;;;;;;5104265;27;20036;-66
2022/02/18 09:48:08;;;;;;;10.10;1.20;;;8.60;85.60;;;;;;5107111;27;20114;-65
2022/02/18 09:50:36;;;;;;;9.02;1.80;;;8.60;85.70;;;;;;5106335;28;20051;-68
2022/02/18 09:53:07;;;;;;;6.80;1.20;;;8.60;85.60;;;;;;5109232;28;20050;-66
2022/02/18 09:55:39;;;;;;;7.15;1.73;;;8.60;85.80;;;;;;5107236;28;20558;-66
2022/02/18 09:58:08;;;;;;;5.47;1.25;;;8.60;86.10;;;;;;5107341;28;20133;-66
2022/02/18 10:00:40;;;;;;;7.10;1.40;;;8.70;86.00;;;;;;5104999;28;20089;-65
2022/02/18 10:03:09;;;;;;;2.85;0.80;;;8.70;86.50;;;;;;5108802;27;20327;-65
2022/02/18 10:05:39;;;;;;;3.80;1.17;;;8.80;86.10;;;;;;5103797;27;20051;-65
2022/02/18 10:08:11;;;;;;;2.58;0.80;;;8.80;86.80;;;;;;5104138;27;20628;-67
2022/02/18 10:10:41;;;;;;;2.13;0.75;;;8.90;86.80;;;;;;5092504;27;20058;-66
2022/02/18 10:13:29;;;;;;;1.93;0.87;;;8.90;86.70;;;;;;5105844;27;20155;-66
2022/02/18 10:15:59;;;;;;;5.43;0.98;;;9.00;86.80;;;;;;5107703;27;20120;-66
2022/02/18 10:18:27;;;;;;;5.35;0.93;;;9.00;87.10;;;;;;5113291;27;20932;-65
2022/02/18 10:20:57;;;;;;;5.00;0.80;;;9.00;86.80;;;;;;5119293;27;20065;-67
2022/02/18 10:23:31;;;;;;;3.63;0.95;;;9.00;86.80;;;;;;5121259;27;20132;-66
2022/02/18 10:26:01;;;;;;;4.57;1.00;;;9.00;87.30;;;;;;5122528;27;20039;-66
2022/02/18 10:28:28;;;;;;;5.32;0.90;;;9.10;87.00;;;;;;5128861;27;20051;-66
2022/02/18 10:31:05;;;;;;;11.32;1.77;;;9.10;87.30;;;;;;5127277;27;20047;-65
2022/02/18 10:33:35;;;;;;;9.55;2.53;;;9.20;87.30;;;;;;5110111;27;20050;-67
2022/02/18 10:36:09;;;;;;;11.93;2.60;;;9.20;87.50;;;;;;5127821;27;20055;-68
2022/02/18 10:38:38;;;;;;;7.07;3.15;;;9.20;87.60;;;;;;5121904;27;20043;-66
2022/02/18 10:41:23;;;;;;;9.45;3.40;;;9.20;87.80;;;;;;5124704;27;20047;-65
2022/02/18 10:43:51;;;;;;;8.00;1.98;;;9.20;87.90;;;;;;5134992;27;20042;-66
2022/02/18 10:46:20;;;;;;;7.90;1.77;;;9.30;87.90;;;;;;5128401;27;20039;-66
2022/02/18 10:48:51;;;;;;;7.28;2.10;;;9.30;88.20;;;;;;5133553;27;20070;-66
2022/02/18 10:51:27;;;;;;;5.45;1.75;;;9.30;88.10;;;;;;5133569;27;20039;-65
2022/02/18 10:53:57;;;;;;;3.47;1.00;;;9.40;88.00;;;;;;5131621;27;20063;-68
2022/02/18 10:56:30;;;;;;;6.50;1.45;;;9.40;87.80;;;;;;5132796;27;20496;-67
2022/02/18 10:58:59;;;;;;;5.20;1.48;;;9.40;88.20;;;;;;5134909;27;20043;-65
2022/02/18 11:01:30;;;;;;;5.40;2.03;;;9.40;88.00;;;;;;5130541;27;20047;-67
2022/02/18 11:04:03;;;;;;;7.40;1.70;;;9.40;87.80;;;;;;5131328;27;20055;-65
2022/02/18 11:06:33;;;;;;;5.22;1.77;;;9.40;88.10;;;;;;5136838;27;20121;-66
2022/02/18 11:09:04;;;;;;;7.53;1.85;;;9.50;88.20;;;;;;5124841;27;20101;-66
2022/02/18 11:11:33;;;;;;;7.65;2.78;;;9.50;88.10;;;;;;5138548;27;20095;-67
2022/02/18 11:14:02;;;;;;;11.53;4.17;;;9.50;88.10;;;;;;5142246;27;20377;-67
2022/02/18 11:16:34;;;;;;;7.82;2.90;;;9.60;88.30;;;;;;5134420;27;20300;-67
2022/02/18 11:19:02;;;;;;;9.85;3.80;;;9.70;88.30;;;;;;5133597;27;20047;-65
2022/02/18 11:21:31;;;;;;;10.93;4.07;;;9.70;88.40;;;;;;5130301;27;20047;-67
2022/02/18 11:24:00;;;;;;;9.55;2.75;;;9.70;88.10;;;;;;5133372;27;20050;-65
2022/02/18 11:26:42;;;;;;;7.10;2.40;;;9.70;88.10;;;;;;5132832;27;20047;-66
2022/02/18 11:29:10;;;;;;;9.65;3.13;;;9.70;88.40;;;;;;5132227;27;20050;-67
2022/02/18 11:31:42;;;;;;;7.43;2.60;;;9.80;88.20;;;;;;5134475;27;20122;-66
2022/02/18 11:34:36;;;;;;;6.65;2.30;;;9.80;88.20;;;;;;5136793;27;20046;-67
2022/02/18 11:37:38;;;;;;;6.75;2.10;;;9.80;88.00;;;;;;5136490;27;20488;-66
2022/02/18 11:40:34;;;;;;;6.00;1.98;;;9.80;88.10;;;;;;5118901;27;20043;-66
2022/02/18 11:43:27;;;;;;;4.32;1.70;;;9.80;88.10;;;;;;5133246;27;20039;-66
2022/02/18 11:46:00;;;;;;;3.92;1.52;;;9.90;88.30;;;;;;5131216;27;20287;-66
2022/02/18 11:48:42;;;;;;;7.82;2.13;;;9.80;88.20;;;;;;5133717;27;20156;-67
2022/02/18 11:51:11;;;;;;;7.03;1.63;;;9.80;88.20;;;;;;5128402;27;20054;-67
2022/02/18 11:53:41;;;;;;;5.32;1.65;;;9.90;88.40;;;;;;5132651;27;20503;-67
2022/02/18 11:56:10;;;;;;;4.80;1.20;;;9.90;88.10;;;;;;5133754;27;20031;-67
2022/02/18 11:59:02;;;;;;;1.67;0.85;;;9.90;88.10;;;;;;5137831;27;20039;-65
2022/02/18 12:02:09;;;;;;;1.92;0.63;;;9.90;88.20;;;;;;5137111;27;20030;-66
2022/02/18 12:04:39;;;;;;;1.15;0.68;;;10.00;88.30;;;;;;5138324;27;20053;-69
2022/02/18 12:07:34;;;;;;;1.08;0.45;;;10.10;88.30;;;;;;5137448;27;20146;-66
2022/02/18 12:10:04;;;;;;;1.83;0.47;;;10.20;88.20;;;;;;5142161;27;20050;-66
2022/02/18 12:12:33;;;;;;;1.08;0.65;;;10.20;88.00;;;;;;5140006;27;20031;-66
2022/02/18 12:15:21;;;;;;;2.40;0.55;;;10.20;87.80;;;;;;5131112;27;20490;-65
2022/02/18 12:17:52;;;;;;;2.85;0.63;;;10.30;87.90;;;;;;5130512;27;20083;-69
2022/02/18 12:20:27;;;;;;;0.77;0.45;;;10.30;87.90;;;;;;5113421;27;20494;-66
2022/02/18 12:22:55;;;;;;;3.58;0.88;;;10.30;87.80;;;;;;5132475;27;20026;-66
2022/02/18 12:25:28;;;;;;;2.28;0.40;;;10.30;87.70;;;;;;5128457;27;20043;-69
2022/02/18 12:28:16;;;;;;;0.47;0.17;;;10.40;87.70;;;;;;5113087;27;20162;-67
2022/02/18 12:30:54;;;;;;;2.28;0.32;;;10.40;87.70;;;;;;5133738;27;20039;-67
2022/02/18 12:33:22;;;;;;;0.35;0.20;;;10.40;87.50;;;;;;5133519;27;20050;-66
2022/02/18 12:35:51;;;;;;;1.20;0.30;;;10.40;87.50;;;;;;5131698;27;20088;-67
2022/02/18 12:38:18;;;;;;;3.42;0.40;;;10.40;87.40;;;;;;5133586;27;20035;-67
2022/02/18 12:40:47;;;;;;;1.63;0.50;;;10.40;87.20;;;;;;5138027;27;20189;-67
2022/02/18 12:43:18;;;;;;;0.68;0.40;;;10.40;87.40;;;;;;5117422;27;20283;-67
2022/02/18 12:45:51;;;;;;;3.60;0.32;;;10.50;87.30;;;;;;5138430;27;20050;-66
2022/02/18 12:48:40;;;;;;;0.40;0.20;;;10.50;87.20;;;;;;5129359;27;20155;-66
2022/02/18 12:51:22;;;;;;;0.50;0.20;;;10.50;87.30;;;;;;5135369;27;20115;-65
2022/02/18 12:53:50;;;;;;;0.47;0.20;;;10.60;87.10;;;;;;5129792;27;20499;-65
2022/02/18 12:56:19;;;;;;;0.57;0.20;;;10.60;87.10;;;;;;5130975;27;20127;-65
2022/02/18 12:58:54;;;;;;;0.52;0.20;;;10.60;86.70;;;;;;5131563;27;20083;-66
2022/02/18 13:01:23;;;;;;;0.57;0.40;;;10.80;86.60;;;;;;5129223;27;20058;-65
2022/02/18 13:03:50;;;;;;;4.75;0.40;;;10.80;86.30;;;;;;5131650;27;20039;-65
2022/02/18 13:06:20;;;;;;;0.85;0.17;;;10.90;86.20;;;;;;5130303;27;20092;-65
2022/02/18 13:08:48;;;;;;;2.70;0.30;;;10.90;86.30;;;;;;5130571;27;20057;-66
2022/02/18 13:11:17;;;;;;;1.15;0.40;;;10.90;86.20;;;;;;5132040;27;20051;-65
2022/02/18 13:13:45;;;;;;;0.45;0.22;;;10.70;86.20;;;;;;5140711;27;20442;-65